Somerset, CO

7:49 AM MDT on September 20, 2014 (GMT -0600)
Moon Ridge | Change Station
CLOSE
Current Station
Personal Weather Station
Location: Crested Butte, CO
Elevation: 8894 ft
Nearby Weather Stations

Elev 8894 ft 38.88 °N, 106.98 °W | Updated 2 seconds ago

Clear
Clear
37.8 °F
Feels Like 38 °F
N
0.0
Wind Variable Wind from NNW
Gusts 0.0 mph

Today
High -- | Low -- °F
--% Chance of Precip.
Yesterday
High -- | Low -- °F
Precip. -- in
6:55 AM 7:09 PM
Waning Crescent, 12% visible
Pressure 30.03 in
Visibility 10.0 miles
Clouds Clear
Windchill 38 °F
Dew Point 36 °F
Humidity 92%
Rainfall 0.00 in
Snow Depth 0 in , 1 in , 0 in
UV 0 out of 12
Pollen 5.70 out of 12
Air Quality Not available.
Flu Activity Not available.
METAR KASE 201253Z 20007KT 10SM CLR 08/04 A3036 RMK AO2 SLP167 T00830039

More Conditions Fewer Conditions

Pressure 30.03 in
Visibility 10.0 miles
Clouds Clear
Windchill 38 °F
Dew Point 36 °F
Humidity 92%
Rainfall 0.00 in
Snow Depth 0 in , 1 in , 0 in
UV 0 out of 12
Pollen 5.70 out of 12
Air Quality Not available.
Flu Activity Not available.
METAR KASE 201253Z 20007KT 10SM CLR 08/04 A3036 RMK AO2 SLP167 T00830039

More Conditions Fewer Conditions

10-Day Weather Forecast

Almanac

Astronomy

Sep. 20, 2014 Rise Set
Actual Time 6:55 AM MDT 7:09 PM MDT
Civil Twilight 6:28 AM MDT 7:35 PM MDT
Nautical Twilight 5:57 AM MDT 8:07 PM MDT
Astronomical Twilight 5:25 AM MDT 8:38 PM MDT
Moon 3:38 AM MDT 5:13 PM MDT
Length of Visible Light 13h 07m
Length of Day
12h 14m
Tomorrow will be 2m 32s shorter.
Waning Crescent, 12% of the Moon is Illuminated
Today
Waning Crescent
Sep 24
New
Oct 1
First Quarter
Oct 8
Full
Oct 15
Last Quarter

Today's Extremes

State Highs State Lows

Community

WunderPhotos

Upload Photos

1,754,858 photos uploaded!

Nearby

Snow Depth

Station Depth Elevation
Hoosier Pass 0 in 11400 ft
Upper San Juan 1 in 10130 ft
Roach 0 in 9700 ft
Tower 0 in 10500 ft
Lynx Pass 0 in 8880 ft

Earthquake Activity

City Distance Mag. Time & Date
No recent earthquake activity has been reported nearby.
Minimum magnitude displayed is 2.5.

Coastal Water Temperatures

Place Temperature
No Stations Reporting

Nearby Weather Stations